createdAt,value
2023-01-30T00:01:35.341Z,4.27
2023-01-30T00:04:06.219Z,4.50
2023-01-30T00:06:35.359Z,4.49
2023-01-30T00:09:04.792Z,4.55
2023-01-30T00:11:34.260Z,4.53
2023-01-30T00:14:03.796Z,4.47
2023-01-30T00:16:32.920Z,4.22
2023-01-30T00:19:02.543Z,4.48
2023-01-30T00:21:32.975Z,4.37
2023-01-30T00:24:02.341Z,4.45
2023-01-30T00:26:31.574Z,4.45
2023-01-30T00:29:00.975Z,4.38
2023-01-30T00:31:33.141Z,4.47
2023-01-30T00:34:02.613Z,4.59
2023-01-30T00:36:33.352Z,4.41
2023-01-30T00:39:02.769Z,4.52
2023-01-30T00:41:51.855Z,4.49
2023-01-30T00:44:37.689Z,4.59
2023-01-30T00:47:06.918Z,4.38
2023-01-30T00:49:37.013Z,4.38
2023-01-30T00:52:07.922Z,4.33
2023-01-30T00:54:37.390Z,4.27
2023-01-30T00:57:06.555Z,4.20
2023-01-30T00:59:36.517Z,4.19
2023-01-30T01:02:06.327Z,4.48
2023-01-30T01:04:43.418Z,4.49
2023-01-30T01:07:16.091Z,4.30
2023-01-30T01:09:45.586Z,4.19
2023-01-30T01:12:14.758Z,4.31
2023-01-30T01:14:45.196Z,4.24
2023-01-30T01:17:14.382Z,4.46
2023-01-30T01:19:43.748Z,4.24
2023-01-30T01:22:14.258Z,4.49
2023-01-30T01:24:43.684Z,4.30
2023-01-30T01:27:12.857Z,4.18
2023-01-30T01:29:42.221Z,4.45
2023-01-30T01:32:11.479Z,4.38
2023-01-30T01:34:41.124Z,4.38
2023-01-30T01:37:10.252Z,4.34
2023-01-30T01:39:58.470Z,4.34
2023-01-30T01:42:34.560Z,4.41
2023-01-30T01:45:17.272Z,4.44
2023-01-30T01:47:52.884Z,4.27
2023-01-30T01:50:24.070Z,4.24
2023-01-30T01:52:55.688Z,4.37
2023-01-30T01:55:28.079Z,4.37
2023-01-30T01:58:02.546Z,4.44
2023-01-30T02:00:33.295Z,4.44
2023-01-30T02:03:06.427Z,4.30
2023-01-30T02:05:38.890Z,4.26
2023-01-30T02:08:12.695Z,4.40
2023-01-30T02:10:53.452Z,4.33
2023-01-30T02:13:23.157Z,4.16
2023-01-30T02:15:53.186Z,4.26
2023-01-30T02:18:22.485Z,4.24
2023-01-30T02:21:21.062Z,4.02
2023-01-30T02:24:22.557Z,4.25
2023-01-30T02:27:20.703Z,4.30
2023-01-30T02:30:40.768Z,4.40
2023-01-30T02:33:21.307Z,4.28
2023-01-30T02:36:02.947Z,4.36
2023-01-30T02:38:40.448Z,4.33
2023-01-30T02:41:21.451Z,4.16
2023-01-30T02:43:59.550Z,4.38
2023-01-30T02:46:35.567Z,4.23
2023-01-30T02:49:10.852Z,4.34
2023-01-30T02:51:43.725Z,4.36
2023-01-30T02:54:15.834Z,4.26
2023-01-30T02:56:50.108Z,4.24
2023-01-30T02:59:23.814Z,4.24
2023-01-30T03:02:23.924Z,4.19
2023-01-30T03:05:29.070Z,4.22
2023-01-30T03:08:14.092Z,4.28
2023-01-30T03:10:53.428Z,3.95
2023-01-30T03:13:30.583Z,4.21
2023-01-30T03:16:05.245Z,4.11
2023-01-30T03:18:34.487Z,4.08
2023-01-30T03:21:08.585Z,4.17
2023-01-30T03:23:37.776Z,4.11
2023-01-30T03:26:12.106Z,4.07
2023-01-30T03:28:42.583Z,4.12
2023-01-30T03:36:26.565Z,4.12
2023-01-30T03:38:59.519Z,4.17
2023-01-30T03:41:28.660Z,4.18
2023-01-30T03:43:58.066Z,4.03
2023-01-30T03:46:27.350Z,4.20
2023-01-30T03:48:56.865Z,4.20
2023-01-30T03:51:27.419Z,4.09
2023-01-30T03:53:57.050Z,4.12
2023-01-30T03:56:26.180Z,3.98
2023-01-30T03:58:56.123Z,4.02
2023-01-30T04:01:34.489Z,3.80
2023-01-30T04:04:04.679Z,3.99
2023-01-30T04:06:36.587Z,4.09
2023-01-30T04:09:07.377Z,4.02
2023-01-30T04:11:42.316Z,3.86
2023-01-30T04:14:11.909Z,3.91
2023-01-30T04:16:54.073Z,3.84
2023-01-30T04:19:39.397Z,3.78
2023-01-30T04:22:10.104Z,3.92
2023-01-30T04:24:39.485Z,3.84
2023-01-30T04:27:09.324Z,3.84
2023-01-30T04:29:43.625Z,4.02
2023-01-30T04:32:13.697Z,3.93
2023-01-30T04:34:43.954Z,3.97
2023-01-30T04:37:14.613Z,4.18
2023-01-30T04:39:44.047Z,4.06
2023-01-30T04:42:13.228Z,4.04
2023-01-30T04:44:53.097Z,3.98
2023-01-30T04:47:26.352Z,3.80
2023-01-30T04:49:56.691Z,3.77
2023-01-30T04:52:27.250Z,3.79
2023-01-30T04:54:56.610Z,3.90
2023-01-30T04:57:25.914Z,3.96
2023-01-30T04:59:55.428Z,3.90
2023-01-30T05:02:25.256Z,3.82
2023-01-30T05:04:54.767Z,3.85
2023-01-30T05:07:23.957Z,3.98
2023-01-30T05:09:55.000Z,4.13
2023-01-30T05:12:24.173Z,4.03
2023-01-30T05:14:53.598Z,4.00
2023-01-30T05:17:22.791Z,3.74
2023-01-30T05:19:52.218Z,3.83
2023-01-30T05:22:21.374Z,3.96
2023-01-30T05:24:50.931Z,4.02
2023-01-30T05:27:21.520Z,3.98
2023-01-30T05:29:50.943Z,4.09
2023-01-30T05:32:21.187Z,4.03
2023-01-30T05:34:50.877Z,4.12
2023-01-30T05:37:19.960Z,3.96
2023-01-30T05:39:49.520Z,4.01
2023-01-30T05:42:20.055Z,3.99
2023-01-30T05:44:49.464Z,4.03
2023-01-30T05:47:18.623Z,4.09
2023-01-30T05:49:48.009Z,4.09
2023-01-30T05:52:17.093Z,3.69
2023-01-30T05:54:46.731Z,3.81
2023-01-30T05:57:16.020Z,3.86
2023-01-30T05:59:46.759Z,3.75
2023-01-30T06:02:15.783Z,4.13
2023-01-30T06:04:45.167Z,4.06
2023-01-30T06:07:15.458Z,3.91
2023-01-30T06:09:44.915Z,4.08
2023-01-30T06:12:14.187Z,4.12
2023-01-30T06:14:44.946Z,3.98
2023-01-30T06:17:14.180Z,3.86
2023-01-30T06:19:43.627Z,3.82
2023-01-30T06:22:12.711Z,3.97
2023-01-30T06:24:42.199Z,4.01
2023-01-30T06:27:11.334Z,4.07
2023-01-30T06:29:40.743Z,3.95
2023-01-30T06:32:11.400Z,4.09
2023-01-30T06:34:40.750Z,4.02
2023-01-30T06:37:09.961Z,4.13
2023-01-30T06:39:39.372Z,4.19
2023-01-30T06:42:08.458Z,4.15
2023-01-30T06:44:37.870Z,4.21
2023-01-30T06:47:06.957Z,4.12
2023-01-30T06:49:37.673Z,4.05
2023-01-30T06:52:07.083Z,4.06
2023-01-30T06:54:36.430Z,4.06
2023-01-30T06:57:05.752Z,3.98
2023-01-30T06:59:35.163Z,4.07
2023-01-30T07:02:04.612Z,4.12
2023-01-30T07:04:34.255Z,4.20
2023-01-30T07:07:06.876Z,4.07
2023-01-30T07:09:36.612Z,4.13
2023-01-30T07:12:06.083Z,4.19
2023-01-30T07:14:35.623Z,3.96
2023-01-30T07:17:04.937Z,4.02
2023-01-30T07:19:34.400Z,3.89
2023-01-30T07:22:05.002Z,3.91
2023-01-30T07:24:34.451Z,3.86
2023-01-30T07:27:03.603Z,4.16
2023-01-30T07:29:32.972Z,4.27
2023-01-30T07:32:02.093Z,4.29
2023-01-30T07:34:31.615Z,4.51
2023-01-30T07:37:00.817Z,4.39
2023-01-30T07:39:31.749Z,4.43
2023-01-30T07:42:02.735Z,4.66
2023-01-30T07:44:33.706Z,4.64
2023-01-30T07:47:03.311Z,4.55
2023-01-30T07:49:32.724Z,4.44
2023-01-30T07:52:01.764Z,4.55
2023-01-30T07:54:32.727Z,4.75
2023-01-30T07:57:01.878Z,4.60
2023-01-30T07:59:31.357Z,4.62
2023-01-30T08:02:00.411Z,4.63
2023-01-30T08:04:29.889Z,4.54
2023-01-30T08:06:59.037Z,4.70
2023-01-30T08:09:28.412Z,4.90
2023-01-30T08:11:58.998Z,5.01
2023-01-30T08:14:29.591Z,4.97
2023-01-30T08:16:59.053Z,5.00
2023-01-30T08:19:28.487Z,4.90
2023-01-30T08:21:57.543Z,5.05
2023-01-30T08:24:26.973Z,5.01
2023-01-30T08:26:56.133Z,4.90
2023-01-30T08:29:26.873Z,4.97
2023-01-30T08:31:59.127Z,4.94
2023-01-30T08:34:28.730Z,5.19
2023-01-30T08:36:57.772Z,5.05
2023-01-30T08:39:27.191Z,5.05
2023-01-30T08:41:56.375Z,5.12
2023-01-30T08:44:27.213Z,4.94
2023-01-30T08:46:56.467Z,5.02
2023-01-30T08:49:25.869Z,4.94
2023-01-30T08:51:54.940Z,4.95
2023-01-30T08:54:24.527Z,5.13
2023-01-30T08:56:54.144Z,5.09
2023-01-30T08:59:23.509Z,5.21
2023-01-30T09:01:53.999Z,5.14
2023-01-30T09:04:25.107Z,5.39
2023-01-30T09:06:54.360Z,5.42
2023-01-30T09:09:24.166Z,5.41
2023-01-30T09:11:53.215Z,5.48
2023-01-30T09:14:23.190Z,5.61
2023-01-30T09:16:55.882Z,6.06
2023-01-30T09:19:26.052Z,5.99
2023-01-30T09:21:55.954Z,6.41
2023-01-30T09:24:26.798Z,5.99
2023-01-30T09:26:57.644Z,6.16
2023-01-30T09:29:27.528Z,6.57
2023-01-30T09:31:58.833Z,6.59
2023-01-30T09:34:29.242Z,6.68
2023-01-30T09:37:00.269Z,7.08
2023-01-30T09:39:29.898Z,7.04
2023-01-30T09:42:26.338Z,7.41
2023-01-30T09:45:18.477Z,7.13
2023-01-30T09:48:01.818Z,6.98
2023-01-30T09:50:57.914Z,7.03
2023-01-30T09:53:34.515Z,7.08
2023-01-30T09:56:04.134Z,6.86
2023-01-30T09:58:42.779Z,6.88
2023-01-30T10:01:20.692Z,7.31
2023-01-30T10:04:03.166Z,7.51
2023-01-30T10:06:37.600Z,7.76
2023-01-30T10:09:16.299Z,7.88
2023-01-30T10:12:00.682Z,7.70
2023-01-30T10:14:51.202Z,9.55
2023-01-30T10:17:35.098Z,9.92
2023-01-30T10:20:26.671Z,10.68
2023-01-30T10:23:09.097Z,9.82
2023-01-30T10:25:45.417Z,9.19
2023-01-30T10:28:21.698Z,8.71
2023-01-30T10:30:53.409Z,8.89
2023-01-30T10:33:26.756Z,9.73
2023-01-30T10:36:05.535Z,9.19
2023-01-30T10:38:42.490Z,8.77
2023-01-30T10:41:22.118Z,7.66
2023-01-30T10:44:01.051Z,7.46
2023-01-30T10:46:52.197Z,7.14
2023-01-30T10:49:32.820Z,6.65
2023-01-30T10:52:17.890Z,6.50
2023-01-30T10:54:54.994Z,6.21
2023-01-30T10:57:33.468Z,5.87
2023-01-30T11:00:05.461Z,6.06
2023-01-30T11:02:44.702Z,5.98
2023-01-30T11:05:18.005Z,6.52
2023-01-30T11:07:49.676Z,6.75
2023-01-30T11:10:22.530Z,8.19
2023-01-30T11:12:56.958Z,8.32
2023-01-30T11:15:26.685Z,7.70
2023-01-30T11:18:33.443Z,7.24
2023-01-30T11:21:07.814Z,9.84
2023-01-30T11:23:42.842Z,12.34
2023-01-30T11:26:21.235Z,10.68
2023-01-30T11:28:50.331Z,12.50
2023-01-30T11:31:35.226Z,13.46
2023-01-30T11:34:17.012Z,15.20
2023-01-30T11:36:47.353Z,14.53
2023-01-30T11:39:29.702Z,13.99
2023-01-30T11:42:04.744Z,13.45
2023-01-30T11:44:36.436Z,10.69
2023-01-30T11:47:10.333Z,10.96
2023-01-30T11:49:49.270Z,9.73
2023-01-30T11:52:37.998Z,11.43
2023-01-30T11:55:14.476Z,11.69
2023-01-30T11:57:46.511Z,9.32
2023-01-30T12:00:21.299Z,9.61
2023-01-30T12:02:53.195Z,10.45
2023-01-30T12:05:27.257Z,12.82
2023-01-30T12:08:14.784Z,13.29
2023-01-30T12:10:46.932Z,13.90
2023-01-30T12:13:22.437Z,14.34
2023-01-30T12:15:57.648Z,14.56
2023-01-30T12:18:35.797Z,15.00
2023-01-30T12:21:12.469Z,16.19
2023-01-30T12:23:46.380Z,15.61
2023-01-30T12:26:21.688Z,13.30
2023-01-30T12:28:57.982Z,9.69
2023-01-30T12:31:32.742Z,8.93
2023-01-30T12:34:02.251Z,8.67
2023-01-30T12:36:43.238Z,7.90
2023-01-30T12:39:23.816Z,7.53
2023-01-30T12:42:16.539Z,7.25
2023-01-30T12:44:58.193Z,7.39
2023-01-30T12:47:40.052Z,9.29
2023-01-30T12:50:28.799Z,8.88
2023-01-30T12:53:15.072Z,8.44
2023-01-30T12:55:55.951Z,7.48
2023-01-30T12:58:33.684Z,11.43
2023-01-30T13:01:16.994Z,13.38
2023-01-30T13:03:53.198Z,15.10
2023-01-30T13:06:39.793Z,11.17
2023-01-30T13:09:23.370Z,9.52
2023-01-30T13:11:59.786Z,8.79
2023-01-30T13:14:37.543Z,8.77
2023-01-30T13:17:34.299Z,9.01
2023-01-30T13:20:06.656Z,11.34
2023-01-30T13:22:43.287Z,9.53
2023-01-30T13:25:25.129Z,8.44
2023-01-30T13:27:58.451Z,7.83
2023-01-30T13:30:31.284Z,7.69
2023-01-30T13:33:06.059Z,7.20
2023-01-30T13:35:42.570Z,8.06
2023-01-30T13:38:18.426Z,7.60
2023-01-30T13:40:48.726Z,7.44
2023-01-30T13:43:25.472Z,7.03
2023-01-30T13:45:59.670Z,7.09
2023-01-30T13:48:48.016Z,7.06
2023-01-30T13:51:28.912Z,7.01
2023-01-30T13:54:06.784Z,7.09
2023-01-30T13:56:43.201Z,7.66
2023-01-30T13:59:23.491Z,7.71
2023-01-30T14:02:19.965Z,7.15
2023-01-30T14:04:51.772Z,6.77
2023-01-30T14:07:28.793Z,6.79
2023-01-30T14:10:15.498Z,7.12
2023-01-30T14:12:47.166Z,7.11
2023-01-30T14:15:32.106Z,7.07
2023-01-30T14:18:07.557Z,6.85
2023-01-30T14:20:39.977Z,7.08
2023-01-30T14:23:23.189Z,6.88
2023-01-30T14:25:56.633Z,6.89
2023-01-30T14:28:50.999Z,6.72
2023-01-30T14:31:54.146Z,6.73
2023-01-30T14:35:14.199Z,6.53
2023-01-30T14:38:09.982Z,6.40
2023-01-30T14:40:44.485Z,6.15
2023-01-30T14:43:53.589Z,6.07
2023-01-30T14:46:54.759Z,6.15
2023-01-30T14:49:33.734Z,6.05
2023-01-30T14:52:05.175Z,5.98
2023-01-30T14:54:42.504Z,5.97
2023-01-30T14:57:27.744Z,5.81
2023-01-30T15:00:18.580Z,5.88
2023-01-30T15:02:55.736Z,5.77
2023-01-30T15:05:32.123Z,5.93
2023-01-30T15:08:09.243Z,5.83
2023-01-30T15:11:05.660Z,6.02
2023-01-30T15:13:59.821Z,5.90
2023-01-30T15:16:52.114Z,6.08
2023-01-30T15:19:48.929Z,5.81
2023-01-30T15:22:24.588Z,5.93
2023-01-30T15:25:27.343Z,5.87
2023-01-30T15:28:07.435Z,5.84
2023-01-30T15:31:03.204Z,5.82
2023-01-30T15:33:32.938Z,5.90
2023-01-30T15:36:18.363Z,5.87
2023-01-30T15:38:47.856Z,5.77
2023-01-30T15:41:18.307Z,5.64
2023-01-30T15:44:32.269Z,5.86
2023-01-30T15:47:25.593Z,5.78
2023-01-30T15:50:00.790Z,5.96
2023-01-30T15:52:40.358Z,5.64
2023-01-30T15:55:17.578Z,5.68
2023-01-30T15:57:53.513Z,5.71
2023-01-30T16:00:29.353Z,5.71
2023-01-30T16:03:01.033Z,5.49
2023-01-30T16:05:30.887Z,5.57
2023-01-30T16:08:10.545Z,5.52
2023-01-30T16:10:46.956Z,5.48
2023-01-30T16:13:20.578Z,5.55
2023-01-30T16:15:56.236Z,5.59
2023-01-30T16:18:32.443Z,5.58
2023-01-30T16:21:04.552Z,5.74
2023-01-30T16:23:37.104Z,5.53
2023-01-30T16:26:09.371Z,5.23
2023-01-30T16:28:39.902Z,5.26
2023-01-30T16:31:11.204Z,5.05
2023-01-30T16:33:40.576Z,5.27
2023-01-30T16:36:35.043Z,4.88
2023-01-30T16:39:04.135Z,5.01
2023-01-30T16:41:36.117Z,4.88
2023-01-30T16:44:22.861Z,4.72
2023-01-30T16:47:01.645Z,4.76
2023-01-30T16:49:49.572Z,4.89
2023-01-30T16:52:24.896Z,4.75
2023-01-30T16:54:57.259Z,4.82
2023-01-30T16:57:36.688Z,4.99
2023-01-30T17:00:21.341Z,4.99
2023-01-30T17:02:54.416Z,5.14
2023-01-30T17:05:26.433Z,4.97
2023-01-30T17:07:57.329Z,5.09
2023-01-30T17:10:54.881Z,5.07
2023-01-30T17:13:36.391Z,5.15
2023-01-30T17:16:30.617Z,5.41
2023-01-30T17:19:00.960Z,5.23
2023-01-30T17:21:32.781Z,5.44
2023-01-30T17:24:04.989Z,5.55
2023-01-30T17:26:34.842Z,5.42
2023-01-30T17:29:04.953Z,5.36
2023-01-30T17:31:35.797Z,5.43
2023-01-30T17:34:05.279Z,5.48
2023-01-30T17:36:34.745Z,5.25
2023-01-30T17:39:04.207Z,5.44
2023-01-30T17:41:33.607Z,5.09
2023-01-30T17:44:02.763Z,5.30
2023-01-30T17:46:37.500Z,5.28
2023-01-30T17:49:07.246Z,5.16
2023-01-30T17:51:36.708Z,5.16
2023-01-30T17:54:06.027Z,5.13
2023-01-30T17:56:38.403Z,5.22
2023-01-30T17:59:13.610Z,5.26
2023-01-30T18:01:44.930Z,5.45
2023-01-30T18:04:14.244Z,5.27
2023-01-30T18:06:46.581Z,5.40
2023-01-30T18:09:17.646Z,5.53
2023-01-30T18:11:47.430Z,5.39
2023-01-30T18:14:17.077Z,5.48
2023-01-30T18:16:48.233Z,5.39
2023-01-30T18:19:23.884Z,5.55
2023-01-30T18:21:53.318Z,5.48
2023-01-30T18:24:22.702Z,5.52
2023-01-30T18:26:52.198Z,5.83
2023-01-30T18:29:21.450Z,5.64
2023-01-30T18:31:52.716Z,5.67
2023-01-30T18:34:21.956Z,5.64
2023-01-30T18:36:51.315Z,5.47
2023-01-30T18:39:20.526Z,5.92
2023-01-30T18:41:50.028Z,5.58
2023-01-30T18:44:19.358Z,5.76
2023-01-30T18:46:51.709Z,5.75
2023-01-30T18:49:21.155Z,5.83
2023-01-30T18:51:50.713Z,5.88
2023-01-30T18:54:20.055Z,6.11
2023-01-30T18:56:49.556Z,6.09
2023-01-30T18:59:18.629Z,6.37
2023-01-30T19:01:48.190Z,6.09
2023-01-30T19:04:18.811Z,6.38
2023-01-30T19:06:48.604Z,6.48
2023-01-30T19:09:19.113Z,6.65
2023-01-30T19:12:05.905Z,6.81
2023-01-30T19:14:35.045Z,6.62
2023-01-30T19:17:04.642Z,6.53
2023-01-30T19:19:37.100Z,6.26
2023-01-30T19:22:06.573Z,6.48
2023-01-30T19:24:35.871Z,6.46
2023-01-30T19:27:06.340Z,6.58
2023-01-30T19:29:35.465Z,6.48
2023-01-30T19:32:05.201Z,6.34
2023-01-30T19:34:35.795Z,6.64
2023-01-30T19:37:05.336Z,6.31
2023-01-30T19:39:34.628Z,6.35
2023-01-30T19:42:04.174Z,6.30
2023-01-30T19:44:33.430Z,6.34
2023-01-30T19:47:02.894Z,6.54
2023-01-30T19:49:34.143Z,6.33
2023-01-30T19:52:06.691Z,6.46
2023-01-30T19:54:35.917Z,6.65
2023-01-30T19:57:05.393Z,6.73
2023-01-30T19:59:38.793Z,6.59
2023-01-30T20:02:11.169Z,6.79
2023-01-30T20:04:40.859Z,6.89
2023-01-30T20:07:11.807Z,6.75
2023-01-30T20:09:41.014Z,6.62
2023-01-30T20:12:11.333Z,6.67
2023-01-30T20:14:40.520Z,6.91
2023-01-30T20:17:10.749Z,6.91
2023-01-30T20:19:39.976Z,6.73
2023-01-30T20:22:10.765Z,6.98
2023-01-30T20:24:40.021Z,7.05
2023-01-30T20:27:09.500Z,6.66
2023-01-30T20:29:38.737Z,6.84
2023-01-30T20:32:08.196Z,6.80
2023-01-30T20:34:37.527Z,6.79
2023-01-30T20:37:06.943Z,6.83
2023-01-30T20:39:37.544Z,6.86
2023-01-30T20:42:07.234Z,6.76
2023-01-30T20:44:36.399Z,6.80
2023-01-30T20:47:06.115Z,6.80
2023-01-30T20:49:35.396Z,6.83
2023-01-30T20:52:05.308Z,6.73
2023-01-30T20:54:34.486Z,6.78
2023-01-30T20:57:06.824Z,6.60
2023-01-30T20:59:37.251Z,6.53
2023-01-30T21:02:06.672Z,6.67
2023-01-30T21:04:35.940Z,6.51
2023-01-30T21:07:05.630Z,6.54
2023-01-30T21:09:34.873Z,6.54
2023-01-30T21:12:05.861Z,6.44
2023-01-30T21:14:34.949Z,6.59
2023-01-30T21:17:04.369Z,6.34
2023-01-30T21:19:33.663Z,6.34
2023-01-30T21:22:07.608Z,6.59
2023-01-30T21:24:39.454Z,6.43
2023-01-30T21:27:10.268Z,6.25
2023-01-30T21:29:39.416Z,6.27
2023-01-30T21:32:08.807Z,6.08
2023-01-30T21:34:37.972Z,6.33
2023-01-30T21:37:25.120Z,6.42
2023-01-30T21:40:12.019Z,6.27
2023-01-30T21:43:05.339Z,6.32
2023-01-30T21:45:34.443Z,6.41
2023-01-30T21:48:03.825Z,6.57
2023-01-30T21:50:33.059Z,6.64
2023-01-30T21:53:02.920Z,6.68
2023-01-30T21:55:32.062Z,6.38
2023-01-30T21:58:02.863Z,6.44
2023-01-30T22:00:31.948Z,6.61
2023-01-30T22:03:01.404Z,6.43
2023-01-30T22:05:36.544Z,6.36
2023-01-30T22:08:06.627Z,6.51
2023-01-30T22:10:36.331Z,6.38
2023-01-30T22:13:07.247Z,6.38
2023-01-30T22:15:36.454Z,6.55
2023-01-30T22:18:06.008Z,6.29
2023-01-30T22:20:35.137Z,6.36
2023-01-30T22:23:04.579Z,6.47
2023-01-30T22:25:33.665Z,6.45
2023-01-30T22:28:03.046Z,6.24
2023-01-30T22:30:33.761Z,6.32
2023-01-30T22:33:03.203Z,6.18
2023-01-30T22:35:32.499Z,6.20
2023-01-30T22:38:02.007Z,6.20
2023-01-30T22:40:31.149Z,6.12
2023-01-30T22:43:00.535Z,6.28
2023-01-30T22:45:29.797Z,5.87
2023-01-30T22:48:00.713Z,5.95
2023-01-30T22:50:29.945Z,6.02
2023-01-30T22:52:59.478Z,5.77
2023-01-30T22:55:28.641Z,5.95
2023-01-30T22:57:58.165Z,5.85
2023-01-30T23:00:27.315Z,5.82
2023-01-30T23:02:59.702Z,5.81
2023-01-30T23:05:28.849Z,5.87
2023-01-30T23:07:58.452Z,5.76
2023-01-30T23:10:27.524Z,5.71
2023-01-30T23:13:09.344Z,5.73
2023-01-30T23:15:42.838Z,6.00
2023-01-30T23:18:31.014Z,5.90
2023-01-30T23:21:00.751Z,5.80
2023-01-30T23:23:30.186Z,5.83
2023-01-30T23:26:02.336Z,5.72
2023-01-30T23:28:31.883Z,5.85
2023-01-30T23:31:07.518Z,5.76
2023-01-30T23:33:38.904Z,5.68
2023-01-30T23:36:09.918Z,5.75
2023-01-30T23:38:39.997Z,5.48
2023-01-30T23:41:12.186Z,5.66
2023-01-30T23:43:43.245Z,5.62
2023-01-30T23:46:14.844Z,5.71
2023-01-30T23:48:47.132Z,5.53
2023-01-30T23:51:17.761Z,5.63
2023-01-30T23:53:47.473Z,5.59
2023-01-30T23:56:18.130Z,5.73
2023-01-30T23:58:48.431Z,5.55
